sensor_id;sensor_type;location;lat;lon;timestamp;P1;durP1;ratioP1;P2;durP2;ratioP2
14592;SDS011;7383;52.354;9.756;2022-12-24T00:01:01;4.18;;;3.83;;
14592;SDS011;7383;52.354;9.756;2022-12-24T00:03:28;3.92;;;3.63;;
14592;SDS011;7383;52.354;9.756;2022-12-24T00:05:54;4.50;;;4.18;;
14592;SDS011;7383;52.354;9.756;2022-12-24T00:08:21;3.92;;;3.63;;
14592;SDS011;7383;52.354;9.756;2022-12-24T00:10:50;3.85;;;3.60;;
14592;SDS011;7383;52.354;9.756;2022-12-24T00:13:17;4.07;;;3.78;;
14592;SDS011;7383;52.354;9.756;2022-12-24T00:15:44;3.92;;;3.63;;
14592;SDS011;7383;52.354;9.756;2022-12-24T00:18:11;3.42;;;3.22;;
14592;SDS011;7383;52.354;9.756;2022-12-24T00:20:39;3.33;;;3.13;;
14592;SDS011;7383;52.354;9.756;2022-12-24T00:23:10;3.78;;;3.55;;
14592;SDS011;7383;52.354;9.756;2022-12-24T00:25:36;4.32;;;4.03;;
14592;SDS011;7383;52.354;9.756;2022-12-24T00:28:04;3.42;;;3.22;;
14592;SDS011;7383;52.354;9.756;2022-12-24T00:30:31;3.40;;;3.20;;
14592;SDS011;7383;52.354;9.756;2022-12-24T00:32:58;3.92;;;3.63;;
14592;SDS011;7383;52.354;9.756;2022-12-24T00:35:24;4.15;;;3.85;;
14592;SDS011;7383;52.354;9.756;2022-12-24T00:37:51;3.85;;;3.55;;
14592;SDS011;7383;52.354;9.756;2022-12-24T00:40:17;3.90;;;3.60;;
14592;SDS011;7383;52.354;9.756;2022-12-24T00:42:44;3.55;;;3.35;;
14592;SDS011;7383;52.354;9.756;2022-12-24T00:45:12;3.50;;;3.30;;
14592;SDS011;7383;52.354;9.756;2022-12-24T00:47:38;3.50;;;3.30;;
14592;SDS011;7383;52.354;9.756;2022-12-24T00:50:05;4.63;;;4.32;;
14592;SDS011;7383;52.354;9.756;2022-12-24T00:52:33;4.30;;;4.00;;
14592;SDS011;7383;52.354;9.756;2022-12-24T00:55:00;3.58;;;3.30;;
14592;SDS011;7383;52.354;9.756;2022-12-24T00:57:26;3.67;;;3.47;;
14592;SDS011;7383;52.354;9.756;2022-12-24T00:59:57;3.40;;;3.20;;
14592;SDS011;7383;52.354;9.756;2022-12-24T01:02:25;3.75;;;3.55;;
14592;SDS011;7383;52.354;9.756;2022-12-24T01:04:54;4.20;;;3.90;;
14592;SDS011;7383;52.354;9.756;2022-12-24T01:07:36;3.55;;;3.30;;
14592;SDS011;7383;52.354;9.756;2022-12-24T01:10:04;3.75;;;3.45;;
14592;SDS011;7383;52.354;9.756;2022-12-24T01:12:31;3.45;;;3.25;;
14592;SDS011;7383;52.354;9.756;2022-12-24T01:14:58;3.65;;;3.42;;
14592;SDS011;7383;52.354;9.756;2022-12-24T01:17:26;3.58;;;3.38;;
14592;SDS011;7383;52.354;9.756;2022-12-24T01:19:52;3.65;;;3.40;;
14592;SDS011;7383;52.354;9.756;2022-12-24T01:22:19;3.63;;;3.33;;
14592;SDS011;7383;52.354;9.756;2022-12-24T01:24:45;3.45;;;3.25;;
14592;SDS011;7383;52.354;9.756;2022-12-24T01:27:12;3.03;;;2.83;;
14592;SDS011;7383;52.354;9.756;2022-12-24T01:29:38;3.30;;;3.05;;
14592;SDS011;7383;52.354;9.756;2022-12-24T01:32:05;3.30;;;3.10;;
14592;SDS011;7383;52.354;9.756;2022-12-24T01:34:32;3.47;;;3.28;;
14592;SDS011;7383;52.354;9.756;2022-12-24T01:36:59;2.97;;;2.78;;
14592;SDS011;7383;52.354;9.756;2022-12-24T01:39:25;3.30;;;3.10;;
14592;SDS011;7383;52.354;9.756;2022-12-24T01:41:52;3.03;;;2.83;;
14592;SDS011;7383;52.354;9.756;2022-12-24T01:44:40;3.13;;;2.92;;
14592;SDS011;7383;52.354;9.756;2022-12-24T01:47:10;3.22;;;3.03;;
14592;SDS011;7383;52.354;9.756;2022-12-24T01:49:43;2.72;;;2.60;;
14592;SDS011;7383;52.354;9.756;2022-12-24T01:52:15;3.58;;;3.30;;
14592;SDS011;7383;52.354;9.756;2022-12-24T01:54:45;3.00;;;2.80;;
14592;SDS011;7383;52.354;9.756;2022-12-24T01:57:15;3.30;;;3.10;;
14592;SDS011;7383;52.354;9.756;2022-12-24T01:59:48;3.47;;;3.28;;
14592;SDS011;7383;52.354;9.756;2022-12-24T02:02:18;3.80;;;3.50;;
14592;SDS011;7383;52.354;9.756;2022-12-24T02:04:48;4.05;;;3.75;;
14592;SDS011;7383;52.354;9.756;2022-12-24T02:07:21;3.85;;;3.55;;
14592;SDS011;7383;52.354;9.756;2022-12-24T02:09:48;3.55;;;3.33;;
14592;SDS011;7383;52.354;9.756;2022-12-24T02:12:18;3.75;;;3.45;;
14592;SDS011;7383;52.354;9.756;2022-12-24T02:14:45;4.45;;;4.05;;
14592;SDS011;7383;52.354;9.756;2022-12-24T02:17:14;4.38;;;4.07;;
14592;SDS011;7383;52.354;9.756;2022-12-24T02:19:58;4.03;;;3.72;;
14592;SDS011;7383;52.354;9.756;2022-12-24T02:22:53;3.95;;;3.65;;
14592;SDS011;7383;52.354;9.756;2022-12-24T02:25:39;4.15;;;3.80;;
14592;SDS011;7383;52.354;9.756;2022-12-24T02:28:21;3.83;;;3.53;;
14592;SDS011;7383;52.354;9.756;2022-12-24T02:31:03;3.60;;;3.30;;
14592;SDS011;7383;52.354;9.756;2022-12-24T02:33:34;4.07;;;3.70;;
14592;SDS011;7383;52.354;9.756;2022-12-24T02:36:09;3.17;;;2.60;;
14592;SDS011;7383;52.354;9.756;2022-12-24T02:38:40;3.58;;;2.10;;
14592;SDS011;7383;52.354;9.756;2022-12-24T02:41:14;3.42;;;2.17;;
14592;SDS011;7383;52.354;9.756;2022-12-24T02:43:43;2.58;;;1.70;;
14592;SDS011;7383;52.354;9.756;2022-12-24T02:46:15;2.10;;;1.67;;
14592;SDS011;7383;52.354;9.756;2022-12-24T02:48:44;3.92;;;1.70;;
14592;SDS011;7383;52.354;9.756;2022-12-24T02:51:13;2.13;;;1.77;;
14592;SDS011;7383;52.354;9.756;2022-12-24T02:53:40;1.98;;;1.40;;
14592;SDS011;7383;52.354;9.756;2022-12-24T02:56:19;2.90;;;1.80;;
14592;SDS011;7383;52.354;9.756;2022-12-24T02:59:03;2.03;;;1.60;;
14592;SDS011;7383;52.354;9.756;2022-12-24T03:01:48;3.13;;;1.85;;
14592;SDS011;7383;52.354;9.756;2022-12-24T03:04:24;2.92;;;1.70;;
14592;SDS011;7383;52.354;9.756;2022-12-24T03:07:06;2.97;;;1.75;;
14592;SDS011;7383;52.354;9.756;2022-12-24T03:09:43;4.78;;;2.47;;
14592;SDS011;7383;52.354;9.756;2022-12-24T03:12:25;3.20;;;2.03;;
14592;SDS011;7383;52.354;9.756;2022-12-24T03:14:57;5.45;;;2.05;;
14592;SDS011;7383;52.354;9.756;2022-12-24T03:17:26;3.30;;;2.10;;
14592;SDS011;7383;52.354;9.756;2022-12-24T03:19:53;3.58;;;1.90;;
14592;SDS011;7383;52.354;9.756;2022-12-24T03:22:20;4.68;;;1.95;;
14592;SDS011;7383;52.354;9.756;2022-12-24T03:24:48;2.67;;;1.65;;
14592;SDS011;7383;52.354;9.756;2022-12-24T03:27:15;3.58;;;2.00;;
14592;SDS011;7383;52.354;9.756;2022-12-24T03:29:42;4.50;;;2.10;;
14592;SDS011;7383;52.354;9.756;2022-12-24T03:32:10;3.28;;;2.05;;
14592;SDS011;7383;52.354;9.756;2022-12-24T03:34:38;2.97;;;1.73;;
14592;SDS011;7383;52.354;9.756;2022-12-24T03:37:05;4.93;;;2.33;;
14592;SDS011;7383;52.354;9.756;2022-12-24T03:39:31;4.35;;;1.83;;
14592;SDS011;7383;52.354;9.756;2022-12-24T03:41:58;4.88;;;2.30;;
14592;SDS011;7383;52.354;9.756;2022-12-24T03:44:24;6.28;;;2.55;;
14592;SDS011;7383;52.354;9.756;2022-12-24T03:46:51;4.47;;;2.10;;
14592;SDS011;7383;52.354;9.756;2022-12-24T03:49:17;5.13;;;2.30;;
14592;SDS011;7383;52.354;9.756;2022-12-24T03:51:45;5.70;;;2.25;;
14592;SDS011;7383;52.354;9.756;2022-12-24T03:54:11;3.95;;;2.15;;
14592;SDS011;7383;52.354;9.756;2022-12-24T03:56:37;5.55;;;2.28;;
14592;SDS011;7383;52.354;9.756;2022-12-24T03:59:04;4.18;;;2.60;;
14592;SDS011;7383;52.354;9.756;2022-12-24T04:01:30;8.68;;;2.40;;
14592;SDS011;7383;52.354;9.756;2022-12-24T04:03:57;5.75;;;2.40;;
14592;SDS011;7383;52.354;9.756;2022-12-24T04:06:23;7.88;;;2.63;;
14592;SDS011;7383;52.354;9.756;2022-12-24T04:08:53;7.43;;;2.40;;
14592;SDS011;7383;52.354;9.756;2022-12-24T04:11:21;7.47;;;2.40;;
14592;SDS011;7383;52.354;9.756;2022-12-24T04:13:47;7.28;;;2.78;;
14592;SDS011;7383;52.354;9.756;2022-12-24T04:16:14;6.00;;;2.30;;
14592;SDS011;7383;52.354;9.756;2022-12-24T04:18:41;5.30;;;2.20;;
14592;SDS011;7383;52.354;9.756;2022-12-24T04:21:08;5.55;;;2.55;;
14592;SDS011;7383;52.354;9.756;2022-12-24T04:23:36;4.45;;;2.15;;
14592;SDS011;7383;52.354;9.756;2022-12-24T04:26:06;5.97;;;2.60;;
14592;SDS011;7383;52.354;9.756;2022-12-24T04:28:34;5.80;;;2.50;;
14592;SDS011;7383;52.354;9.756;2022-12-24T04:31:03;6.63;;;2.47;;
14592;SDS011;7383;52.354;9.756;2022-12-24T04:33:31;5.43;;;2.80;;
14592;SDS011;7383;52.354;9.756;2022-12-24T04:35:57;7.15;;;2.63;;
14592;SDS011;7383;52.354;9.756;2022-12-24T04:38:25;6.55;;;2.67;;
14592;SDS011;7383;52.354;9.756;2022-12-24T04:40:56;6.63;;;2.38;;
14592;SDS011;7383;52.354;9.756;2022-12-24T04:43:24;8.10;;;2.70;;
14592;SDS011;7383;52.354;9.756;2022-12-24T04:45:51;6.72;;;2.13;;
14592;SDS011;7383;52.354;9.756;2022-12-24T04:48:18;4.47;;;2.13;;
14592;SDS011;7383;52.354;9.756;2022-12-24T04:50:44;9.30;;;2.85;;
14592;SDS011;7383;52.354;9.756;2022-12-24T04:53:11;6.50;;;2.38;;
14592;SDS011;7383;52.354;9.756;2022-12-24T04:55:42;6.65;;;2.60;;
14592;SDS011;7383;52.354;9.756;2022-12-24T04:58:09;4.55;;;2.10;;
14592;SDS011;7383;52.354;9.756;2022-12-24T05:00:37;4.30;;;2.05;;
14592;SDS011;7383;52.354;9.756;2022-12-24T05:03:03;5.93;;;2.22;;
14592;SDS011;7383;52.354;9.756;2022-12-24T05:05:30;4.60;;;1.88;;
14592;SDS011;7383;52.354;9.756;2022-12-24T05:07:57;3.50;;;2.05;;
14592;SDS011;7383;52.354;9.756;2022-12-24T05:10:23;6.00;;;2.30;;
14592;SDS011;7383;52.354;9.756;2022-12-24T05:12:49;5.70;;;2.60;;
14592;SDS011;7383;52.354;9.756;2022-12-24T05:15:16;5.60;;;2.10;;
14592;SDS011;7383;52.354;9.756;2022-12-24T05:17:44;5.20;;;2.13;;
14592;SDS011;7383;52.354;9.756;2022-12-24T05:20:10;5.90;;;2.22;;
14592;SDS011;7383;52.354;9.756;2022-12-24T05:22:37;6.80;;;2.35;;
14592;SDS011;7383;52.354;9.756;2022-12-24T05:25:21;5.95;;;2.38;;
14592;SDS011;7383;52.354;9.756;2022-12-24T05:28:07;4.88;;;2.60;;
14592;SDS011;7383;52.354;9.756;2022-12-24T05:30:33;4.68;;;2.08;;
14592;SDS011;7383;52.354;9.756;2022-12-24T05:33:01;4.95;;;2.30;;
14592;SDS011;7383;52.354;9.756;2022-12-24T05:35:28;4.72;;;2.33;;
14592;SDS011;7383;52.354;9.756;2022-12-24T05:37:56;6.30;;;2.08;;
14592;SDS011;7383;52.354;9.756;2022-12-24T05:40:23;5.32;;;2.60;;
14592;SDS011;7383;52.354;9.756;2022-12-24T05:42:49;4.90;;;2.50;;
14592;SDS011;7383;52.354;9.756;2022-12-24T05:45:16;7.28;;;2.85;;
14592;SDS011;7383;52.354;9.756;2022-12-24T05:47:42;5.55;;;2.80;;
14592;SDS011;7383;52.354;9.756;2022-12-24T05:50:10;4.43;;;2.13;;
14592;SDS011;7383;52.354;9.756;2022-12-24T05:52:37;7.30;;;2.67;;
14592;SDS011;7383;52.354;9.756;2022-12-24T05:55:04;7.38;;;2.53;;
14592;SDS011;7383;52.354;9.756;2022-12-24T05:57:31;5.07;;;2.33;;
14592;SDS011;7383;52.354;9.756;2022-12-24T05:59:58;6.40;;;2.35;;
14592;SDS011;7383;52.354;9.756;2022-12-24T06:02:24;3.83;;;2.25;;
14592;SDS011;7383;52.354;9.756;2022-12-24T06:04:51;5.78;;;2.30;;
14592;SDS011;7383;52.354;9.756;2022-12-24T06:07:18;7.60;;;2.67;;
14592;SDS011;7383;52.354;9.756;2022-12-24T06:09:45;5.20;;;2.80;;
14592;SDS011;7383;52.354;9.756;2022-12-24T06:12:11;10.65;;;3.55;;
14592;SDS011;7383;52.354;9.756;2022-12-24T06:14:38;7.07;;;2.70;;
14592;SDS011;7383;52.354;9.756;2022-12-24T06:17:04;6.55;;;2.63;;
14592;SDS011;7383;52.354;9.756;2022-12-24T06:19:31;6.50;;;2.80;;
14592;SDS011;7383;52.354;9.756;2022-12-24T06:21:58;7.63;;;2.95;;
14592;SDS011;7383;52.354;9.756;2022-12-24T06:24:25;7.82;;;2.53;;
14592;SDS011;7383;52.354;9.756;2022-12-24T06:26:52;5.47;;;2.80;;
14592;SDS011;7383;52.354;9.756;2022-12-24T06:29:18;8.70;;;3.22;;
14592;SDS011;7383;52.354;9.756;2022-12-24T06:31:45;7.82;;;2.80;;
14592;SDS011;7383;52.354;9.756;2022-12-24T06:34:11;4.90;;;2.72;;
14592;SDS011;7383;52.354;9.756;2022-12-24T06:36:38;7.15;;;2.67;;
14592;SDS011;7383;52.354;9.756;2022-12-24T06:39:04;6.32;;;2.88;;
14592;SDS011;7383;52.354;9.756;2022-12-24T06:41:32;9.57;;;2.90;;
14592;SDS011;7383;52.354;9.756;2022-12-24T06:43:59;9.10;;;2.97;;
14592;SDS011;7383;52.354;9.756;2022-12-24T06:46:25;6.90;;;2.90;;
14592;SDS011;7383;52.354;9.756;2022-12-24T06:48:52;9.38;;;3.05;;
14592;SDS011;7383;52.354;9.756;2022-12-24T06:51:20;7.68;;;3.25;;
14592;SDS011;7383;52.354;9.756;2022-12-24T06:53:49;6.30;;;3.13;;
14592;SDS011;7383;52.354;9.756;2022-12-24T06:56:16;10.13;;;3.13;;
14592;SDS011;7383;52.354;9.756;2022-12-24T06:58:44;10.63;;;3.67;;
14592;SDS011;7383;52.354;9.756;2022-12-24T07:01:12;13.25;;;3.40;;
14592;SDS011;7383;52.354;9.756;2022-12-24T07:03:40;9.43;;;3.42;;
14592;SDS011;7383;52.354;9.756;2022-12-24T07:06:10;6.28;;;3.20;;
14592;SDS011;7383;52.354;9.756;2022-12-24T07:08:44;9.02;;;3.40;;
14592;SDS011;7383;52.354;9.756;2022-12-24T07:11:11;9.52;;;3.15;;
14592;SDS011;7383;52.354;9.756;2022-12-24T07:13:39;6.40;;;2.70;;
14592;SDS011;7383;52.354;9.756;2022-12-24T07:16:07;9.30;;;3.05;;
14592;SDS011;7383;52.354;9.756;2022-12-24T07:18:34;7.50;;;3.20;;
14592;SDS011;7383;52.354;9.756;2022-12-24T07:21:01;7.43;;;2.63;;
14592;SDS011;7383;52.354;9.756;2022-12-24T07:23:28;5.78;;;2.90;;
14592;SDS011;7383;52.354;9.756;2022-12-24T07:25:55;6.65;;;2.97;;
14592;SDS011;7383;52.354;9.756;2022-12-24T07:28:24;7.85;;;2.92;;
14592;SDS011;7383;52.354;9.756;2022-12-24T07:30:51;6.70;;;2.95;;
14592;SDS011;7383;52.354;9.756;2022-12-24T07:33:19;5.85;;;2.53;;
14592;SDS011;7383;52.354;9.756;2022-12-24T07:35:45;6.63;;;2.70;;
14592;SDS011;7383;52.354;9.756;2022-12-24T07:38:12;8.07;;;3.50;;
14592;SDS011;7383;52.354;9.756;2022-12-24T07:40:39;5.15;;;2.30;;
14592;SDS011;7383;52.354;9.756;2022-12-24T07:43:05;6.10;;;2.45;;
14592;SDS011;7383;52.354;9.756;2022-12-24T07:45:32;10.52;;;3.47;;
14592;SDS011;7383;52.354;9.756;2022-12-24T07:47:58;5.97;;;2.70;;
14592;SDS011;7383;52.354;9.756;2022-12-24T07:50:26;9.57;;;2.83;;
14592;SDS011;7383;52.354;9.756;2022-12-24T07:52:53;5.97;;;2.45;;
14592;SDS011;7383;52.354;9.756;2022-12-24T07:55:19;7.85;;;2.60;;
14592;SDS011;7383;52.354;9.756;2022-12-24T07:57:46;8.68;;;3.17;;
14592;SDS011;7383;52.354;9.756;2022-12-24T08:00:13;7.70;;;2.88;;
14592;SDS011;7383;52.354;9.756;2022-12-24T08:02:40;7.68;;;2.78;;
14592;SDS011;7383;52.354;9.756;2022-12-24T08:05:08;6.80;;;2.60;;
14592;SDS011;7383;52.354;9.756;2022-12-24T08:07:41;7.35;;;2.70;;
14592;SDS011;7383;52.354;9.756;2022-12-24T08:10:08;6.95;;;2.50;;
14592;SDS011;7383;52.354;9.756;2022-12-24T08:12:35;4.75;;;2.45;;
14592;SDS011;7383;52.354;9.756;2022-12-24T08:15:01;7.70;;;2.67;;
14592;SDS011;7383;52.354;9.756;2022-12-24T08:17:28;5.65;;;2.30;;
14592;SDS011;7383;52.354;9.756;2022-12-24T08:19:54;5.75;;;2.40;;
14592;SDS011;7383;52.354;9.756;2022-12-24T08:22:21;6.82;;;2.75;;
14592;SDS011;7383;52.354;9.756;2022-12-24T08:24:49;5.50;;;2.53;;
14592;SDS011;7383;52.354;9.756;2022-12-24T08:27:15;7.03;;;2.88;;
14592;SDS011;7383;52.354;9.756;2022-12-24T08:29:44;6.90;;;2.47;;
14592;SDS011;7383;52.354;9.756;2022-12-24T08:32:10;5.40;;;2.63;;
14592;SDS011;7383;52.354;9.756;2022-12-24T08:34:37;7.05;;;3.15;;
14592;SDS011;7383;52.354;9.756;2022-12-24T08:37:04;7.72;;;3.58;;
14592;SDS011;7383;52.354;9.756;2022-12-24T08:39:30;8.55;;;2.80;;
14592;SDS011;7383;52.354;9.756;2022-12-24T08:41:58;11.43;;;3.50;;
14592;SDS011;7383;52.354;9.756;2022-12-24T08:44:25;7.47;;;3.35;;
14592;SDS011;7383;52.354;9.756;2022-12-24T08:46:51;8.23;;;3.08;;
14592;SDS011;7383;52.354;9.756;2022-12-24T08:49:18;6.50;;;2.67;;
14592;SDS011;7383;52.354;9.756;2022-12-24T08:51:46;6.57;;;2.78;;
14592;SDS011;7383;52.354;9.756;2022-12-24T08:54:15;6.28;;;2.22;;
14592;SDS011;7383;52.354;9.756;2022-12-24T08:56:49;5.22;;;2.78;;
14592;SDS011;7383;52.354;9.756;2022-12-24T08:59:19;6.70;;;3.22;;
14592;SDS011;7383;52.354;9.756;2022-12-24T09:01:46;5.43;;;2.55;;
14592;SDS011;7383;52.354;9.756;2022-12-24T09:04:12;7.00;;;2.85;;
14592;SDS011;7383;52.354;9.756;2022-12-24T09:06:39;7.60;;;3.17;;
14592;SDS011;7383;52.354;9.756;2022-12-24T09:09:05;5.28;;;2.67;;
14592;SDS011;7383;52.354;9.756;2022-12-24T09:11:32;6.05;;;2.88;;
14592;SDS011;7383;52.354;9.756;2022-12-24T09:13:59;5.25;;;2.88;;
14592;SDS011;7383;52.354;9.756;2022-12-24T09:16:27;6.10;;;3.40;;
14592;SDS011;7383;52.354;9.756;2022-12-24T09:18:55;7.82;;;3.88;;
14592;SDS011;7383;52.354;9.756;2022-12-24T09:21:21;7.57;;;3.58;;
14592;SDS011;7383;52.354;9.756;2022-12-24T09:23:48;9.20;;;4.30;;
14592;SDS011;7383;52.354;9.756;2022-12-24T09:26:15;7.32;;;4.22;;
14592;SDS011;7383;52.354;9.756;2022-12-24T09:28:45;6.40;;;4.05;;
14592;SDS011;7383;52.354;9.756;2022-12-24T09:31:12;8.45;;;4.60;;
14592;SDS011;7383;52.354;9.756;2022-12-24T09:33:40;7.30;;;4.03;;
14592;SDS011;7383;52.354;9.756;2022-12-24T09:38:19;6.20;;;3.88;;
14592;SDS011;7383;52.354;9.756;2022-12-24T09:43:13;10.57;;;4.70;;
14592;SDS011;7383;52.354;9.756;2022-12-24T09:45:44;7.38;;;4.57;;
14592;SDS011;7383;52.354;9.756;2022-12-24T09:55:36;10.15;;;5.13;;
14592;SDS011;7383;52.354;9.756;2022-12-24T10:10:52;5.65;;;3.60;;
14592;SDS011;7383;52.354;9.756;2022-12-24T10:13:40;6.20;;;3.67;;
14592;SDS011;7383;52.354;9.756;2022-12-24T10:16:19;6.18;;;3.67;;
14592;SDS011;7383;52.354;9.756;2022-12-24T10:19:22;8.50;;;3.80;;
14592;SDS011;7383;52.354;9.756;2022-12-24T10:22:25;6.28;;;3.40;;
14592;SDS011;7383;52.354;9.756;2022-12-24T10:25:13;8.15;;;3.90;;
14592;SDS011;7383;52.354;9.756;2022-12-24T10:27:54;7.10;;;3.60;;
14592;SDS011;7383;52.354;9.756;2022-12-24T10:30:25;7.55;;;3.92;;
14592;SDS011;7383;52.354;9.756;2022-12-24T10:32:53;8.73;;;3.90;;
14592;SDS011;7383;52.354;9.756;2022-12-24T10:35:21;6.63;;;3.83;;
14592;SDS011;7383;52.354;9.756;2022-12-24T10:37:51;6.22;;;3.42;;
14592;SDS011;7383;52.354;9.756;2022-12-24T10:40:22;6.80;;;4.05;;
14592;SDS011;7383;52.354;9.756;2022-12-24T10:43:00;8.13;;;3.85;;
14592;SDS011;7383;52.354;9.756;2022-12-24T10:45:29;5.78;;;3.40;;
14592;SDS011;7383;52.354;9.756;2022-12-24T10:48:03;7.25;;;4.15;;
14592;SDS011;7383;52.354;9.756;2022-12-24T10:50:37;8.02;;;3.35;;
14592;SDS011;7383;52.354;9.756;2022-12-24T10:53:11;7.30;;;3.22;;
14592;SDS011;7383;52.354;9.756;2022-12-24T10:55:42;9.52;;;4.05;;
14592;SDS011;7383;52.354;9.756;2022-12-24T10:58:14;5.15;;;3.20;;
14592;SDS011;7383;52.354;9.756;2022-12-24T11:00:46;5.65;;;3.03;;
14592;SDS011;7383;52.354;9.756;2022-12-24T11:03:20;4.45;;;2.90;;
14592;SDS011;7383;52.354;9.756;2022-12-24T11:05:57;5.53;;;3.13;;
14592;SDS011;7383;52.354;9.756;2022-12-24T11:08:30;6.07;;;3.10;;
14592;SDS011;7383;52.354;9.756;2022-12-24T11:10:58;5.18;;;2.97;;
14592;SDS011;7383;52.354;9.756;2022-12-24T11:13:28;6.88;;;4.47;;
14592;SDS011;7383;52.354;9.756;2022-12-24T11:16:01;5.43;;;2.67;;
14592;SDS011;7383;52.354;9.756;2022-12-24T11:18:30;5.90;;;2.88;;
14592;SDS011;7383;52.354;9.756;2022-12-24T11:20:59;5.18;;;2.80;;
14592;SDS011;7383;52.354;9.756;2022-12-24T11:23:26;4.50;;;2.45;;
14592;SDS011;7383;52.354;9.756;2022-12-24T11:25:54;4.95;;;3.03;;
14592;SDS011;7383;52.354;9.756;2022-12-24T11:28:23;5.00;;;2.67;;
14592;SDS011;7383;52.354;9.756;2022-12-24T11:31:00;4.45;;;2.72;;
14592;SDS011;7383;52.354;9.756;2022-12-24T11:33:29;7.88;;;2.90;;
14592;SDS011;7383;52.354;9.756;2022-12-24T11:35:59;6.40;;;3.13;;
14592;SDS011;7383;52.354;9.756;2022-12-24T11:38:27;5.30;;;2.75;;
14592;SDS011;7383;52.354;9.756;2022-12-24T11:40:59;3.92;;;2.70;;
14592;SDS011;7383;52.354;9.756;2022-12-24T11:43:33;4.95;;;2.85;;
14592;SDS011;7383;52.354;9.756;2022-12-24T11:46:14;6.20;;;3.30;;
14592;SDS011;7383;52.354;9.756;2022-12-24T11:48:46;4.82;;;2.75;;
14592;SDS011;7383;52.354;9.756;2022-12-24T11:51:18;4.40;;;2.83;;
14592;SDS011;7383;52.354;9.756;2022-12-24T11:53:48;4.95;;;2.67;;
14592;SDS011;7383;52.354;9.756;2022-12-24T11:56:21;4.72;;;2.70;;
14592;SDS011;7383;52.354;9.756;2022-12-24T11:58:55;3.78;;;2.60;;
14592;SDS011;7383;52.354;9.756;2022-12-24T12:01:32;4.13;;;2.67;;
14592;SDS011;7383;52.354;9.756;2022-12-24T12:04:03;5.07;;;2.75;;
14592;SDS011;7383;52.354;9.756;2022-12-24T12:06:34;4.47;;;2.50;;
14592;SDS011;7383;52.354;9.756;2022-12-24T12:09:05;3.67;;;2.03;;
14592;SDS011;7383;52.354;9.756;2022-12-24T12:11:37;2.78;;;2.03;;
14592;SDS011;7383;52.354;9.756;2022-12-24T12:14:05;3.78;;;2.08;;
14592;SDS011;7383;52.354;9.756;2022-12-24T12:16:44;4.25;;;2.25;;
14592;SDS011;7383;52.354;9.756;2022-12-24T12:19:29;4.85;;;2.00;;
14592;SDS011;7383;52.354;9.756;2022-12-24T12:21:59;2.97;;;1.95;;
14592;SDS011;7383;52.354;9.756;2022-12-24T12:24:41;2.47;;;1.95;;
14592;SDS011;7383;52.354;9.756;2022-12-24T12:27:22;3.70;;;2.17;;
14592;SDS011;7383;52.354;9.756;2022-12-24T12:29:54;3.22;;;2.08;;
14592;SDS011;7383;52.354;9.756;2022-12-24T12:32:29;3.28;;;1.83;;
14592;SDS011;7383;52.354;9.756;2022-12-24T12:35:04;2.00;;;1.67;;
14592;SDS011;7383;52.354;9.756;2022-12-24T12:37:42;2.80;;;1.60;;
14592;SDS011;7383;52.354;9.756;2022-12-24T12:40:11;3.40;;;1.63;;
14592;SDS011;7383;52.354;9.756;2022-12-24T12:42:39;2.13;;;1.70;;
14592;SDS011;7383;52.354;9.756;2022-12-24T12:48:06;3.97;;;2.05;;
14592;SDS011;7383;52.354;9.756;2022-12-24T12:50:47;2.35;;;1.80;;
14592;SDS011;7383;52.354;9.756;2022-12-24T12:53:24;2.30;;;2.10;;
14592;SDS011;7383;52.354;9.756;2022-12-24T12:56:04;2.30;;;2.10;;
14592;SDS011;7383;52.354;9.756;2022-12-24T12:58:43;3.53;;;1.98;;
14592;SDS011;7383;52.354;9.756;2022-12-24T13:01:15;3.38;;;2.70;;
14592;SDS011;7383;52.354;9.756;2022-12-24T13:03:52;2.92;;;2.30;;
14592;SDS011;7383;52.354;9.756;2022-12-24T13:06:44;5.05;;;2.67;;
14592;SDS011;7383;52.354;9.756;2022-12-24T13:09:44;5.00;;;3.03;;
14592;SDS011;7383;52.354;9.756;2022-12-24T13:12:27;3.53;;;2.35;;
14592;SDS011;7383;52.354;9.756;2022-12-24T13:15:10;5.78;;;3.05;;
14592;SDS011;7383;52.354;9.756;2022-12-24T13:20:52;4.45;;;2.60;;
14592;SDS011;7383;52.354;9.756;2022-12-24T13:23:20;4.93;;;2.60;;
14592;SDS011;7383;52.354;9.756;2022-12-24T13:25:49;3.53;;;2.63;;
14592;SDS011;7383;52.354;9.756;2022-12-24T13:28:27;6.10;;;3.20;;
14592;SDS011;7383;52.354;9.756;2022-12-24T13:34:05;8.52;;;3.20;;
14592;SDS011;7383;52.354;9.756;2022-12-24T13:37:01;6.15;;;3.22;;
14592;SDS011;7383;52.354;9.756;2022-12-24T13:45:45;3.92;;;2.65;;
14592;SDS011;7383;52.354;9.756;2022-12-24T13:48:17;2.55;;;1.48;;
14592;SDS011;7383;52.354;9.756;2022-12-24T13:50:51;2.83;;;1.60;;
14592;SDS011;7383;52.354;9.756;2022-12-24T13:53:21;1.88;;;1.23;;
14592;SDS011;7383;52.354;9.756;2022-12-24T13:55:54;1.10;;;1.10;;
14592;SDS011;7383;52.354;9.756;2022-12-24T13:58:22;1.42;;;0.88;;
14592;SDS011;7383;52.354;9.756;2022-12-24T14:00:51;1.25;;;0.80;;
14592;SDS011;7383;52.354;9.756;2022-12-24T14:03:21;0.82;;;0.82;;
14592;SDS011;7383;52.354;9.756;2022-12-24T14:05:52;1.17;;;0.77;;
14592;SDS011;7383;52.354;9.756;2022-12-24T14:08:27;0.80;;;0.80;;
14592;SDS011;7383;52.354;9.756;2022-12-24T14:11:02;1.00;;;0.70;;
14592;SDS011;7383;52.354;9.756;2022-12-24T14:13:51;1.33;;;0.90;;
14592;SDS011;7383;52.354;9.756;2022-12-24T14:16:40;1.08;;;0.80;;
14592;SDS011;7383;52.354;9.756;2022-12-24T14:19:09;1.75;;;0.77;;
14592;SDS011;7383;52.354;9.756;2022-12-24T14:21:41;0.93;;;0.93;;
14592;SDS011;7383;52.354;9.756;2022-12-24T14:24:13;1.15;;;0.90;;
14592;SDS011;7383;52.354;9.756;2022-12-24T14:26:43;0.90;;;0.90;;
14592;SDS011;7383;52.354;9.756;2022-12-24T14:29:14;1.42;;;0.93;;
14592;SDS011;7383;52.354;9.756;2022-12-24T14:31:50;1.15;;;1.05;;
14592;SDS011;7383;52.354;9.756;2022-12-24T14:34:17;1.92;;;1.10;;
14592;SDS011;7383;52.354;9.756;2022-12-24T14:36:44;1.95;;;1.00;;
14592;SDS011;7383;52.354;9.756;2022-12-24T14:42:20;1.10;;;1.00;;
14592;SDS011;7383;52.354;9.756;2022-12-24T14:45:16;1.33;;;1.20;;
14592;SDS011;7383;52.354;9.756;2022-12-24T14:47:51;1.17;;;1.08;;
14592;SDS011;7383;52.354;9.756;2022-12-24T14:50:36;1.45;;;1.20;;
14592;SDS011;7383;52.354;9.756;2022-12-24T14:53:16;3.20;;;1.52;;
14592;SDS011;7383;52.354;9.756;2022-12-24T14:55:50;2.20;;;1.70;;
14592;SDS011;7383;52.354;9.756;2022-12-24T14:58:22;2.00;;;1.60;;
14592;SDS011;7383;52.354;9.756;2022-12-24T15:00:51;1.73;;;1.63;;
14592;SDS011;7383;52.354;9.756;2022-12-24T15:03:20;2.55;;;1.88;;
14592;SDS011;7383;52.354;9.756;2022-12-24T15:05:49;1.65;;;1.30;;
14592;SDS011;7383;52.354;9.756;2022-12-24T15:08:18;1.73;;;1.63;;
14592;SDS011;7383;52.354;9.756;2022-12-24T15:10:49;1.65;;;1.52;;
14592;SDS011;7383;52.354;9.756;2022-12-24T15:13:21;2.97;;;2.10;;
14592;SDS011;7383;52.354;9.756;2022-12-24T15:15:51;2.30;;;1.90;;
14592;SDS011;7383;52.354;9.756;2022-12-24T15:18:20;3.47;;;2.63;;
14592;SDS011;7383;52.354;9.756;2022-12-24T15:20:50;2.60;;;2.35;;
14592;SDS011;7383;52.354;9.756;2022-12-24T15:23:19;3.75;;;2.40;;
14592;SDS011;7383;52.354;9.756;2022-12-24T15:25:52;4.60;;;2.53;;
14592;SDS011;7383;52.354;9.756;2022-12-24T15:28:34;4.88;;;2.55;;
14592;SDS011;7383;52.354;9.756;2022-12-24T15:31:07;3.17;;;2.72;;
14592;SDS011;7383;52.354;9.756;2022-12-24T15:33:37;4.72;;;3.08;;
14592;SDS011;7383;52.354;9.756;2022-12-24T15:36:05;5.03;;;3.25;;
14592;SDS011;7383;52.354;9.756;2022-12-24T15:38:33;4.82;;;3.05;;
14592;SDS011;7383;52.354;9.756;2022-12-24T15:41:04;5.72;;;3.70;;
14592;SDS011;7383;52.354;9.756;2022-12-24T15:43:33;6.90;;;3.55;;
14592;SDS011;7383;52.354;9.756;2022-12-24T15:46:05;5.05;;;3.70;;
14592;SDS011;7383;52.354;9.756;2022-12-24T15:48:32;6.38;;;3.63;;
14592;SDS011;7383;52.354;9.756;2022-12-24T15:51:02;7.05;;;3.40;;
14592;SDS011;7383;52.354;9.756;2022-12-24T15:53:30;8.23;;;3.60;;
14592;SDS011;7383;52.354;9.756;2022-12-24T15:56:05;8.43;;;3.63;;
14592;SDS011;7383;52.354;9.756;2022-12-24T15:58:34;5.25;;;3.28;;
14592;SDS011;7383;52.354;9.756;2022-12-24T16:01:03;6.80;;;3.88;;
14592;SDS011;7383;52.354;9.756;2022-12-24T16:03:53;7.78;;;4.15;;